sensor_id;sensor_type;location;lat;lon;timestamp;pressure;altitude;pressure_sealevel;temperature;humidity
59106;BME280;44891;50.204;8.132;2023-02-11T00:03:11;100061.00;;;2.72;92.56
59106;BME280;44891;50.204;8.132;2023-02-11T00:07:13;100059.50;;;2.69;93.14
59106;BME280;44891;50.204;8.132;2023-02-11T00:11:15;100054.19;;;2.71;93.08
59106;BME280;44891;50.204;8.132;2023-02-11T00:15:19;100044.09;;;2.68;94.11
59106;BME280;44891;50.204;8.132;2023-02-11T00:19:21;100041.34;;;2.97;93.22
59106;BME280;44891;50.204;8.132;2023-02-11T00:23:23;100030.50;;;3.11;92.60
59106;BME280;44891;50.204;8.132;2023-02-11T00:27:25;100028.09;;;3.27;91.61
59106;BME280;44891;50.204;8.132;2023-02-11T00:31:28;100026.38;;;3.36;90.79
59106;BME280;44891;50.204;8.132;2023-02-11T00:35:30;100042.34;;;3.41;90.18
59106;BME280;44891;50.204;8.132;2023-02-11T00:39:32;100028.38;;;3.42;90.04
59106;BME280;44891;50.204;8.132;2023-02-11T00:43:34;100033.16;;;3.47;89.37
59106;BME280;44891;50.204;8.132;2023-02-11T00:47:37;100031.38;;;3.47;89.08
59106;BME280;44891;50.204;8.132;2023-02-11T00:51:39;100034.13;;;3.46;89.34
59106;BME280;44891;50.204;8.132;2023-02-11T00:55:41;100038.88;;;3.50;89.19
59106;BME280;44891;50.204;8.132;2023-02-11T00:59:43;100030.13;;;3.51;88.69
59106;BME280;44891;50.204;8.132;2023-02-11T01:03:46;100031.94;;;3.41;89.26
59106;BME280;44891;50.204;8.132;2023-02-11T01:07:48;100027.81;;;3.48;88.99
59106;BME280;44891;50.204;8.132;2023-02-11T01:11:50;100020.53;;;3.52;88.37
59106;BME280;44891;50.204;8.132;2023-02-11T01:15:52;100024.34;;;3.58;88.12
59106;BME280;44891;50.204;8.132;2023-02-11T01:19:56;100019.94;;;3.58;88.25
59106;BME280;44891;50.204;8.132;2023-02-11T01:23:57;100019.56;;;3.53;88.46
59106;BME280;44891;50.204;8.132;2023-02-11T01:27:59;100016.00;;;3.54;88.48
59106;BME280;44891;50.204;8.132;2023-02-11T01:32:03;100012.44;;;3.55;88.51
59106;BME280;44891;50.204;8.132;2023-02-11T01:36:07;100006.00;;;3.59;88.27
59106;BME280;44891;50.204;8.132;2023-02-11T01:40:11;99996.78;;;3.65;87.72
59106;BME280;44891;50.204;8.132;2023-02-11T01:44:20;99990.19;;;3.70;87.19
59106;BME280;44891;50.204;8.132;2023-02-11T01:48:24;100001.53;;;3.69;87.49
59106;BME280;44891;50.204;8.132;2023-02-11T01:52:28;99994.56;;;3.70;87.49
59106;BME280;44891;50.204;8.132;2023-02-11T01:56:33;100002.72;;;3.75;87.22
59106;BME280;44891;50.204;8.132;2023-02-11T02:00:53;99988.69;;;3.68;87.18
59106;BME280;44891;50.204;8.132;2023-02-11T02:04:57;99988.53;;;3.69;87.49
59106;BME280;44891;50.204;8.132;2023-02-11T02:09:04;99984.19;;;3.70;87.25
59106;BME280;44891;50.204;8.132;2023-02-11T02:13:08;99984.63;;;3.65;87.42
59106;BME280;44891;50.204;8.132;2023-02-11T02:17:11;99975.84;;;3.66;87.08
59106;BME280;44891;50.204;8.132;2023-02-11T02:21:41;99967.75;;;3.69;87.23
59106;BME280;44891;50.204;8.132;2023-02-11T02:25:51;99961.59;;;3.70;87.13
59106;BME280;44891;50.204;8.132;2023-02-11T02:34:16;99979.84;;;3.61;87.86
59106;BME280;44891;50.204;8.132;2023-02-11T02:38:21;99987.22;;;3.65;87.77
59106;BME280;44891;50.204;8.132;2023-02-11T02:42:25;99995.22;;;3.54;88.09
59106;BME280;44891;50.204;8.132;2023-02-11T02:46:27;99997.16;;;3.52;88.36
59106;BME280;44891;50.204;8.132;2023-02-11T02:50:32;99988.47;;;3.61;87.94
59106;BME280;44891;50.204;8.132;2023-02-11T02:54:41;99967.69;;;3.61;87.39
59106;BME280;44891;50.204;8.132;2023-02-11T02:58:58;99968.97;;;3.57;87.71
59106;BME280;44891;50.204;8.132;2023-02-11T03:03:09;99961.63;;;3.52;88.16
59106;BME280;44891;50.204;8.132;2023-02-11T03:07:16;99967.63;;;3.53;87.89
59106;BME280;44891;50.204;8.132;2023-02-11T03:11:21;99966.97;;;3.51;88.30
59106;BME280;44891;50.204;8.132;2023-02-11T03:15:25;99967.47;;;3.54;88.36
59106;BME280;44891;50.204;8.132;2023-02-11T03:19:28;99961.19;;;3.57;87.81
59106;BME280;44891;50.204;8.132;2023-02-11T03:23:34;99964.66;;;3.66;87.44
59106;BME280;44891;50.204;8.132;2023-02-11T03:27:38;99970.97;;;3.63;87.62
59106;BME280;44891;50.204;8.132;2023-02-11T03:31:43;99960.44;;;3.47;88.35
59106;BME280;44891;50.204;8.132;2023-02-11T03:35:49;99935.47;;;3.36;88.83
59106;BME280;44891;50.204;8.132;2023-02-11T03:39:54;99917.09;;;3.47;88.57
59106;BME280;44891;50.204;8.132;2023-02-11T03:43:57;99914.94;;;3.43;89.10
59106;BME280;44891;50.204;8.132;2023-02-11T03:48:01;99913.81;;;3.45;88.55
59106;BME280;44891;50.204;8.132;2023-02-11T03:52:04;99902.47;;;3.46;87.95
59106;BME280;44891;50.204;8.132;2023-02-11T03:56:09;99887.16;;;3.43;87.99
59106;BME280;44891;50.204;8.132;2023-02-11T04:00:13;99873.16;;;3.36;88.46
59106;BME280;44891;50.204;8.132;2023-02-11T04:04:15;99883.66;;;3.26;88.78
59106;BME280;44891;50.204;8.132;2023-02-11T04:08:17;99893.06;;;3.10;88.74
59106;BME280;44891;50.204;8.132;2023-02-11T04:12:20;99917.97;;;3.03;89.55
59106;BME280;44891;50.204;8.132;2023-02-11T04:16:22;99929.44;;;2.82;90.32
59106;BME280;44891;50.204;8.132;2023-02-11T04:20:24;99926.13;;;2.72;91.13
59106;BME280;44891;50.204;8.132;2023-02-11T04:24:26;99916.25;;;2.76;92.09
59106;BME280;44891;50.204;8.132;2023-02-11T04:28:29;99913.00;;;2.73;91.41
59106;BME280;44891;50.204;8.132;2023-02-11T04:32:31;99920.44;;;2.59;91.76
59106;BME280;44891;50.204;8.132;2023-02-11T04:36:33;99916.50;;;2.55;91.39
59106;BME280;44891;50.204;8.132;2023-02-11T04:40:35;99922.88;;;2.33;91.81
59106;BME280;44891;50.204;8.132;2023-02-11T04:44:38;99917.56;;;2.34;92.01
59106;BME280;44891;50.204;8.132;2023-02-11T04:48:40;99919.47;;;2.32;91.73
59106;BME280;44891;50.204;8.132;2023-02-11T04:52:42;99912.28;;;2.16;92.37
59106;BME280;44891;50.204;8.132;2023-02-11T04:56:44;99916.97;;;2.13;92.03
59106;BME280;44891;50.204;8.132;2023-02-11T05:00:48;99912.50;;;1.96;92.82
59106;BME280;44891;50.204;8.132;2023-02-11T05:04:50;99894.81;;;1.81;93.74
59106;BME280;44891;50.204;8.132;2023-02-11T05:08:51;99888.38;;;1.95;94.27
59106;BME280;44891;50.204;8.132;2023-02-11T05:12:53;99865.03;;;2.05;93.39
59106;BME280;44891;50.204;8.132;2023-02-11T05:16:56;99870.13;;;1.87;93.75
59106;BME280;44891;50.204;8.132;2023-02-11T05:20:58;99869.72;;;1.82;93.84
59106;BME280;44891;50.204;8.132;2023-02-11T05:25:00;99878.34;;;1.73;93.51
59106;BME280;44891;50.204;8.132;2023-02-11T05:29:02;99894.44;;;1.67;93.91
59106;BME280;44891;50.204;8.132;2023-02-11T05:33:05;99903.59;;;1.61;95.30
59106;BME280;44891;50.204;8.132;2023-02-11T05:37:07;99909.59;;;1.61;95.84
59106;BME280;44891;50.204;8.132;2023-02-11T05:41:09;99903.69;;;1.79;97.01
59106;BME280;44891;50.204;8.132;2023-02-11T05:45:11;99910.72;;;1.96;97.03
59106;BME280;44891;50.204;8.132;2023-02-11T05:49:14;99900.59;;;1.66;93.93
59106;BME280;44891;50.204;8.132;2023-02-11T05:53:16;99901.41;;;1.56;92.72
59106;BME280;44891;50.204;8.132;2023-02-11T05:57:18;99903.06;;;1.19;94.76
59106;BME280;44891;50.204;8.132;2023-02-11T06:01:20;99913.16;;;1.22;94.73
59106;BME280;44891;50.204;8.132;2023-02-11T06:05:23;99917.91;;;1.17;94.29
59106;BME280;44891;50.204;8.132;2023-02-11T06:09:25;99905.81;;;1.27;93.45
59106;BME280;44891;50.204;8.132;2023-02-11T06:13:27;99924.31;;;1.22;93.66
59106;BME280;44891;50.204;8.132;2023-02-11T06:17:28;99919.41;;;1.00;94.98
59106;BME280;44891;50.204;8.132;2023-02-11T06:21:32;99925.94;;;1.04;95.40
59106;BME280;44891;50.204;8.132;2023-02-11T06:25:34;99921.84;;;1.11;95.08
59106;BME280;44891;50.204;8.132;2023-02-11T06:29:37;99930.59;;;1.20;93.95
59106;BME280;44891;50.204;8.132;2023-02-11T06:33:39;99913.97;;;1.03;94.21
59106;BME280;44891;50.204;8.132;2023-02-11T06:37:42;99918.03;;;0.96;95.20
59106;BME280;44891;50.204;8.132;2023-02-11T06:41:44;99907.84;;;0.94;96.42
59106;BME280;44891;50.204;8.132;2023-02-11T06:45:50;99896.38;;;0.97;96.20
59106;BME280;44891;50.204;8.132;2023-02-11T06:49:52;99897.16;;;0.78;97.44
59106;BME280;44891;50.204;8.132;2023-02-11T06:53:55;99903.19;;;0.88;97.52
59106;BME280;44891;50.204;8.132;2023-02-11T06:57:57;99887.38;;;0.91;97.09
59106;BME280;44891;50.204;8.132;2023-02-11T07:01:59;99892.31;;;0.94;96.79
59106;BME280;44891;50.204;8.132;2023-02-11T07:06:01;99891.34;;;1.05;96.23
59106;BME280;44891;50.204;8.132;2023-02-11T07:10:05;99900.06;;;0.94;96.33
59106;BME280;44891;50.204;8.132;2023-02-11T07:14:08;99914.50;;;0.97;96.80
59106;BME280;44891;50.204;8.132;2023-02-11T07:18:12;99925.41;;;1.10;96.99
59106;BME280;44891;50.204;8.132;2023-02-11T07:22:14;99920.50;;;1.17;96.47
59106;BME280;44891;50.204;8.132;2023-02-11T07:26:18;99924.84;;;1.16;98.24
59106;BME280;44891;50.204;8.132;2023-02-11T07:30:22;99928.94;;;1.19;99.08
59106;BME280;44891;50.204;8.132;2023-02-11T07:34:24;99927.31;;;1.27;99.15
59106;BME280;44891;50.204;8.132;2023-02-11T07:38:26;99932.22;;;1.40;97.98
59106;BME280;44891;50.204;8.132;2023-02-11T07:42:29;99932.22;;;1.30;98.05
59106;BME280;44891;50.204;8.132;2023-02-11T07:46:31;99932.06;;;1.51;98.09
59106;BME280;44891;50.204;8.132;2023-02-11T07:50:34;99928.13;;;1.67;97.64
59106;BME280;44891;50.204;8.132;2023-02-11T07:54:35;99935.47;;;1.61;97.26
59106;BME280;44891;50.204;8.132;2023-02-11T07:58:39;99943.22;;;1.71;97.62
59106;BME280;44891;50.204;8.132;2023-02-11T08:02:42;99946.59;;;1.91;98.41
59106;BME280;44891;50.204;8.132;2023-02-11T08:06:44;99953.16;;;1.95;97.86
59106;BME280;44891;50.204;8.132;2023-02-11T08:10:46;99952.94;;;2.16;97.43
59106;BME280;44891;50.204;8.132;2023-02-11T08:14:49;99961.31;;;2.47;96.63
59106;BME280;44891;50.204;8.132;2023-02-11T08:18:51;99968.63;;;2.61;96.30
59106;BME280;44891;50.204;8.132;2023-02-11T08:22:53;99971.69;;;2.75;95.25
59106;BME280;44891;50.204;8.132;2023-02-11T08:26:55;99967.63;;;2.90;95.50
59106;BME280;44891;50.204;8.132;2023-02-11T08:31:00;99963.31;;;3.08;95.44
59106;BME280;44891;50.204;8.132;2023-02-11T08:35:05;99961.81;;;3.23;95.00
59106;BME280;44891;50.204;8.132;2023-02-11T08:39:08;99951.16;;;3.44;95.04
59106;BME280;44891;50.204;8.132;2023-02-11T08:43:12;99947.75;;;3.88;94.04
59106;BME280;44891;50.204;8.132;2023-02-11T08:47:16;99939.13;;;4.13;92.26
59106;BME280;44891;50.204;8.132;2023-02-11T08:51:18;99948.97;;;4.27;91.14
59106;BME280;44891;50.204;8.132;2023-02-11T08:55:21;99954.56;;;4.41;90.63
59106;BME280;44891;50.204;8.132;2023-02-11T08:59:23;99953.09;;;4.38;89.81
59106;BME280;44891;50.204;8.132;2023-02-11T09:03:29;99951.13;;;4.40;89.90
59106;BME280;44891;50.204;8.132;2023-02-11T09:07:30;99963.22;;;4.49;89.43
59106;BME280;44891;50.204;8.132;2023-02-11T09:11:33;99964.38;;;4.55;89.51
59106;BME280;44891;50.204;8.132;2023-02-11T09:15:35;99967.50;;;4.67;89.12
59106;BME280;44891;50.204;8.132;2023-02-11T09:19:39;99983.34;;;4.81;88.31
59106;BME280;44891;50.204;8.132;2023-02-11T09:23:41;99987.28;;;4.85;88.14
59106;BME280;44891;50.204;8.132;2023-02-11T09:27:44;99990.50;;;4.79;88.55
59106;BME280;44891;50.204;8.132;2023-02-11T09:31:46;99997.50;;;4.79;89.23
59106;BME280;44891;50.204;8.132;2023-02-11T09:35:49;99989.38;;;4.82;88.95
59106;BME280;44891;50.204;8.132;2023-02-11T09:39:51;99999.28;;;4.78;89.74
59106;BME280;44891;50.204;8.132;2023-02-11T09:43:53;99993.00;;;4.89;89.36
59106;BME280;44891;50.204;8.132;2023-02-11T09:47:56;99987.66;;;4.99;89.11
59106;BME280;44891;50.204;8.132;2023-02-11T09:52:02;100002.28;;;4.91;90.02
59106;BME280;44891;50.204;8.132;2023-02-11T09:56:09;100009.44;;;4.89;90.53
59106;BME280;44891;50.204;8.132;2023-02-11T10:00:15;100015.59;;;4.88;90.81
59106;BME280;44891;50.204;8.132;2023-02-11T10:04:20;100020.16;;;4.95;90.81
59106;BME280;44891;50.204;8.132;2023-02-11T10:08:32;100031.91;;;4.99;91.07
59106;BME280;44891;50.204;8.132;2023-02-11T10:12:41;100047.06;;;5.03;91.21
59106;BME280;44891;50.204;8.132;2023-02-11T10:16:48;100051.13;;;5.06;91.30
59106;BME280;44891;50.204;8.132;2023-02-11T10:20:54;100049.19;;;5.08;91.98
59106;BME280;44891;50.204;8.132;2023-02-11T10:25:00;100048.53;;;5.06;92.11
59106;BME280;44891;50.204;8.132;2023-02-11T10:29:10;100054.81;;;4.95;93.53
59106;BME280;44891;50.204;8.132;2023-02-11T10:33:16;100050.75;;;4.93;94.39
59106;BME280;44891;50.204;8.132;2023-02-11T10:37:21;100056.13;;;4.91;95.50
59106;BME280;44891;50.204;8.132;2023-02-11T10:41:27;100052.88;;;4.89;97.04
59106;BME280;44891;50.204;8.132;2023-02-11T10:45:32;100049.63;;;4.95;96.92
59106;BME280;44891;50.204;8.132;2023-02-11T10:49:36;100043.47;;;4.96;96.70
59106;BME280;44891;50.204;8.132;2023-02-11T10:53:38;100020.34;;;5.01;96.80
59106;BME280;44891;50.204;8.132;2023-02-11T10:57:42;100017.75;;;5.01;98.12
59106;BME280;44891;50.204;8.132;2023-02-11T11:01:51;100010.44;;;5.05;98.94
59106;BME280;44891;50.204;8.132;2023-02-11T11:05:54;100012.09;;;5.14;97.97
59106;BME280;44891;50.204;8.132;2023-02-11T11:09:57;100010.81;;;5.18;97.68
59106;BME280;44891;50.204;8.132;2023-02-11T11:14:03;99995.53;;;5.23;97.63
59106;BME280;44891;50.204;8.132;2023-02-11T11:18:09;99989.50;;;5.23;98.11
59106;BME280;44891;50.204;8.132;2023-02-11T11:22:17;99989.69;;;5.29;97.55
59106;BME280;44891;50.204;8.132;2023-02-11T11:26:20;99994.09;;;5.37;96.61
59106;BME280;44891;50.204;8.132;2023-02-11T11:30:24;100003.38;;;5.39;96.91
59106;BME280;44891;50.204;8.132;2023-02-11T11:34:28;100002.56;;;5.39;97.21
59106;BME280;44891;50.204;8.132;2023-02-11T11:38:32;100016.09;;;5.42;97.31
59106;BME280;44891;50.204;8.132;2023-02-11T11:42:36;100021.47;;;5.57;96.85
59106;BME280;44891;50.204;8.132;2023-02-11T11:46:41;100008.63;;;5.64;95.62
59106;BME280;44891;50.204;8.132;2023-02-11T11:50:45;100016.44;;;5.72;95.64
59106;BME280;44891;50.204;8.132;2023-02-11T11:54:49;100021.00;;;5.78;94.70
59106;BME280;44891;50.204;8.132;2023-02-11T11:58:56;100019.53;;;5.76;95.08
59106;BME280;44891;50.204;8.132;2023-02-11T12:03:08;100016.13;;;5.75;94.79
59106;BME280;44891;50.204;8.132;2023-02-11T12:07:17;100021.00;;;5.70;95.55
59106;BME280;44891;50.204;8.132;2023-02-11T12:11:24;100022.47;;;5.64;96.13
59106;BME280;44891;50.204;8.132;2023-02-11T12:15:30;100022.13;;;5.67;95.92
59106;BME280;44891;50.204;8.132;2023-02-11T12:19:46;100027.50;;;5.66;96.16
59106;BME280;44891;50.204;8.132;2023-02-11T12:24:02;100027.03;;;5.62;97.09
59106;BME280;44891;50.204;8.132;2023-02-11T12:28:11;100026.69;;;5.65;96.63
59106;BME280;44891;50.204;8.132;2023-02-11T12:32:20;100019.84;;;5.64;97.03
59106;BME280;44891;50.204;8.132;2023-02-11T12:36:29;100015.16;;;5.68;96.92
59106;BME280;44891;50.204;8.132;2023-02-11T12:40:37;100008.28;;;5.67;97.41
59106;BME280;44891;50.204;8.132;2023-02-11T12:44:46;100005.34;;;5.78;97.23
59106;BME280;44891;50.204;8.132;2023-02-11T12:53:19;100002.28;;;5.99;95.67
59106;BME280;44891;50.204;8.132;2023-02-11T12:57:25;100000.63;;;5.90;95.97
59106;BME280;44891;50.204;8.132;2023-02-11T13:01:29;100000.31;;;5.93;96.49
59106;BME280;44891;50.204;8.132;2023-02-11T13:05:36;100003.44;;;5.96;95.65
59106;BME280;44891;50.204;8.132;2023-02-11T13:09:41;99999.84;;;5.97;96.09
59106;BME280;44891;50.204;8.132;2023-02-11T13:13:48;99995.94;;;6.10;95.75
59106;BME280;44891;50.204;8.132;2023-02-11T13:17:53;99994.63;;;6.06;95.40
59106;BME280;44891;50.204;8.132;2023-02-11T13:22:02;99990.22;;;6.14;95.48
59106;BME280;44891;50.204;8.132;2023-02-11T13:26:09;99982.88;;;6.10;95.69
59106;BME280;44891;50.204;8.132;2023-02-11T13:30:18;99985.81;;;6.15;96.01
59106;BME280;44891;50.204;8.132;2023-02-11T13:34:24;99985.97;;;6.13;96.31
59106;BME280;44891;50.204;8.132;2023-02-11T13:38:27;99973.91;;;6.04;97.01
59106;BME280;44891;50.204;8.132;2023-02-11T13:42:31;99964.63;;;5.93;97.93
59106;BME280;44891;50.204;8.132;2023-02-11T13:46:46;99971.66;;;6.01;97.65
59106;BME280;44891;50.204;8.132;2023-02-11T13:50:50;99978.47;;;6.10;97.54
59106;BME280;44891;50.204;8.132;2023-02-11T13:54:54;99969.84;;;6.10;98.02
59106;BME280;44891;50.204;8.132;2023-02-11T13:58:59;99970.00;;;6.08;98.11
59106;BME280;44891;50.204;8.132;2023-02-11T14:03:16;99973.91;;;6.04;99.17
59106;BME280;44891;50.204;8.132;2023-02-11T14:07:39;99978.78;;;6.07;99.45
59106;BME280;44891;50.204;8.132;2023-02-11T14:12:23;99981.56;;;6.14;99.42
59106;BME280;44891;50.204;8.132;2023-02-11T14:16:27;99980.09;;;6.11;98.64
59106;BME280;44891;50.204;8.132;2023-02-11T14:20:36;99978.63;;;6.17;99.17
59106;BME280;44891;50.204;8.132;2023-02-11T14:24:43;99976.47;;;6.20;98.90
59106;BME280;44891;50.204;8.132;2023-02-11T14:28:46;99973.56;;;6.23;99.36
59106;BME280;44891;50.204;8.132;2023-02-11T14:32:54;99975.53;;;6.13;100.00
59106;BME280;44891;50.204;8.132;2023-02-11T14:37:03;99978.47;;;6.18;100.00
59106;BME280;44891;50.204;8.132;2023-02-11T14:41:10;99977.31;;;6.21;100.00
59106;BME280;44891;50.204;8.132;2023-02-11T14:45:17;99981.69;;;6.20;100.00
59106;BME280;44891;50.204;8.132;2023-02-11T14:49:23;99987.59;;;6.22;100.00
59106;BME280;44891;50.204;8.132;2023-02-11T14:53:26;99991.03;;;6.15;100.00
59106;BME280;44891;50.204;8.132;2023-02-11T14:57:30;99994.28;;;6.17;100.00
59106;BME280;44891;50.204;8.132;2023-02-11T15:01:33;99995.94;;;6.10;100.00
59106;BME280;44891;50.204;8.132;2023-02-11T15:05:37;99994.78;;;6.12;100.00
59106;BME280;44891;50.204;8.132;2023-02-11T15:09:39;99994.94;;;6.11;100.00
59106;BME280;44891;50.204;8.132;2023-02-11T15:13:42;99986.13;;;6.12;100.00
59106;BME280;44891;50.204;8.132;2023-02-11T15:17:46;99999.31;;;6.18;100.00
59106;BME280;44891;50.204;8.132;2023-02-11T15:21:50;100001.94;;;6.18;100.00
59106;BME280;44891;50.204;8.132;2023-02-11T15:25:52;100006.34;;;6.18;100.00
59106;BME280;44891;50.204;8.132;2023-02-11T15:29:55;100001.31;;;6.08;100.00
59106;BME280;44891;50.204;8.132;2023-02-11T15:33:58;100012.88;;;6.06;100.00
59106;BME280;44891;50.204;8.132;2023-02-11T15:38:10;100016.31;;;6.14;100.00
59106;BME280;44891;50.204;8.132;2023-02-11T15:42:17;100009.28;;;6.07;100.00
59106;BME280;44891;50.204;8.132;2023-02-11T15:46:19;100013.03;;;6.04;100.00
59106;BME280;44891;50.204;8.132;2023-02-11T15:50:23;100020.22;;;6.02;100.00
59106;BME280;44891;50.204;8.132;2023-02-11T15:54:27;100023.16;;;5.99;100.00
59106;BME280;44891;50.204;8.132;2023-02-11T15:58:34;100030.00;;;6.00;100.00
59106;BME280;44891;50.204;8.132;2023-02-11T16:02:36;100032.59;;;5.92;100.00
59106;BME280;44891;50.204;8.132;2023-02-11T16:06:44;100035.03;;;5.93;100.00
59106;BME280;44891;50.204;8.132;2023-02-11T16:10:56;100023.16;;;5.99;100.00
59106;BME280;44891;50.204;8.132;2023-02-11T16:14:58;100042.34;;;5.90;100.00
59106;BME280;44891;50.204;8.132;2023-02-11T16:19:03;100039.41;;;5.85;100.00
59106;BME280;44891;50.204;8.132;2023-02-11T16:23:05;100039.09;;;5.80;100.00
59106;BME280;44891;50.204;8.132;2023-02-11T16:27:17;100055.22;;;5.75;100.00
59106;BME280;44891;50.204;8.132;2023-02-11T16:31:19;100063.06;;;5.83;100.00
59106;BME280;44891;50.204;8.132;2023-02-11T16:35:21;100059.78;;;5.73;100.00
59106;BME280;44891;50.204;8.132;2023-02-11T16:39:22;100059.13;;;5.79;100.00
59106;BME280;44891;50.204;8.132;2023-02-11T16:43:26;100058.66;;;5.76;100.00
59106;BME280;44891;50.204;8.132;2023-02-11T16:47:28;100071.81;;;5.74;100.00
59106;BME280;44891;50.204;8.132;2023-02-11T16:51:30;100069.88;;;5.68;100.00
59106;BME280;44891;50.204;8.132;2023-02-11T16:55:32;100072.50;;;5.68;100.00
59106;BME280;44891;50.204;8.132;2023-02-11T16:59:36;100073.78;;;5.56;100.00
59106;BME280;44891;50.204;8.132;2023-02-11T17:03:37;100066.56;;;5.41;100.00
59106;BME280;44891;50.204;8.132;2023-02-11T17:07:40;100085.19;;;5.55;100.00
59106;BME280;44891;50.204;8.132;2023-02-11T17:11:42;100087.44;;;5.58;100.00
59106;BME280;44891;50.204;8.132;2023-02-11T17:15:45;100086.31;;;5.60;100.00
59106;BME280;44891;50.204;8.132;2023-02-11T17:19:47;100084.84;;;5.66;100.00
59106;BME280;44891;50.204;8.132;2023-02-11T17:23:49;100101.31;;;5.66;100.00
59106;BME280;44891;50.204;8.132;2023-02-11T17:27:51;100092.66;;;5.58;100.00
59106;BME280;44891;50.204;8.132;2023-02-11T17:31:55;100101.09;;;5.43;100.00
59106;BME280;44891;50.204;8.132;2023-02-11T17:35:57;100112.00;;;5.47;100.00
59106;BME280;44891;50.204;8.132;2023-02-11T17:39:58;100104.38;;;5.54;100.00
59106;BME280;44891;50.204;8.132;2023-02-11T17:44:00;100115.13;;;5.51;100.00
59106;BME280;44891;50.204;8.132;2023-02-11T17:48:04;100110.16;;;5.31;100.00
59106;BME280;44891;50.204;8.132;2023-02-11T17:52:06;100121.88;;;5.27;100.00
59106;BME280;44891;50.204;8.132;2023-02-11T17:56:08;100118.63;;;5.33;100.00
59106;BME280;44891;50.204;8.132;2023-02-11T18:00:10;100119.44;;;5.26;100.00
59106;BME280;44891;50.204;8.132;2023-02-11T18:04:17;100121.38;;;5.24;100.00
59106;BME280;44891;50.204;8.132;2023-02-11T18:08:19;100122.69;;;5.28;100.00
59106;BME280;44891;50.204;8.132;2023-02-11T18:12:21;100132.16;;;5.29;100.00
59106;BME280;44891;50.204;8.132;2023-02-11T18:16:25;100120.91;;;5.28;100.00
59106;BME280;44891;50.204;8.132;2023-02-11T18:20:30;100123.38;;;5.38;100.00
59106;BME280;44891;50.204;8.132;2023-02-11T18:24:32;100129.09;;;5.41;100.00
59106;BME280;44891;50.204;8.132;2023-02-11T18:28:33;100119.69;;;5.49;100.00
59106;BME280;44891;50.204;8.132;2023-02-11T18:32:35;100119.63;;;5.40;100.00
59106;BME280;44891;50.204;8.132;2023-02-11T18:36:39;100114.41;;;5.40;100.00
59106;BME280;44891;50.204;8.132;2023-02-11T18:40:40;100118.53;;;5.51;100.00
59106;BME280;44891;50.204;8.132;2023-02-11T18:44:43;100109.94;;;5.59;100.00
59106;BME280;44891;50.204;8.132;2023-02-11T18:48:44;100119.69;;;5.49;100.00
59106;BME280;44891;50.204;8.132;2023-02-11T18:52:48;100121.47;;;5.48;100.00
59106;BME280;44891;50.204;8.132;2023-02-11T18:56:50;100118.53;;;5.51;100.00
59106;BME280;44891;50.204;8.132;2023-02-11T19:00:52;100119.34;;;5.52;100.00
59106;BME280;44891;50.204;8.132;2023-02-11T19:04:53;100121.50;;;5.56;100.00
59106;BME280;44891;50.204;8.132;2023-02-11T19:08:57;100129.16;;;5.58;100.00
59106;BME280;44891;50.204;8.132;2023-02-11T19:12:59;100134.03;;;5.61;100.00
59106;BME280;44891;50.204;8.132;2023-02-11T19:17:02;100127.88;;;5.62;100.00
59106;BME280;44891;50.204;8.132;2023-02-11T19:21:05;100122.16;;;5.66;100.00
59106;BME280;44891;50.204;8.132;2023-02-11T19:25:08;100138.31;;;5.70;100.00
59106;BME280;44891;50.204;8.132;2023-02-11T19:29:10;100148.75;;;5.70;100.00
59106;BME280;44891;50.204;8.132;2023-02-11T19:33:12;100150.53;;;5.69;100.00
59106;BME280;44891;50.204;8.132;2023-02-11T19:37:14;100154.59;;;5.72;100.00
59106;BME280;44891;50.204;8.132;2023-02-11T19:41:17;100156.09;;;5.75;100.00
59106;BME280;44891;50.204;8.132;2023-02-11T19:45:21;100163.91;;;5.75;100.00
59106;BME280;44891;50.204;8.132;2023-02-11T19:49:23;100166.81;;;5.71;100.00
59106;BME280;44891;50.204;8.132;2023-02-11T19:53:26;100164.38;;;5.70;100.00
59106;BME280;44891;50.204;8.132;2023-02-11T19:57:29;100161.25;;;5.66;100.00
59106;BME280;44891;50.204;8.132;2023-02-11T20:01:31;100170.56;;;5.69;100.00
59106;BME280;44891;50.204;8.132;2023-02-11T20:05:33;100160.75;;;5.55;100.00
59106;BME280;44891;50.204;8.132;2023-02-11T20:09:35;100165.28;;;5.53;100.00
59106;BME280;44891;50.204;8.132;2023-02-11T20:13:38;100168.41;;;5.56;100.00
59106;BME280;44891;50.204;8.132;2023-02-11T20:17:40;100176.41;;;5.55;100.00
59106;BME280;44891;50.204;8.132;2023-02-11T20:21:42;100179.56;;;5.40;100.00
59106;BME280;44891;50.204;8.132;2023-02-11T20:25:44;100175.31;;;5.39;100.00
59106;BME280;44891;50.204;8.132;2023-02-11T20:29:48;100183.09;;;5.23;100.00
59106;BME280;44891;50.204;8.132;2023-02-11T20:33:49;100178.53;;;5.25;100.00
59106;BME280;44891;50.204;8.132;2023-02-11T20:37:51;100186.34;;;5.25;100.00
59106;BME280;44891;50.204;8.132;2023-02-11T20:41:53;100194.19;;;5.33;100.00
59106;BME280;44891;50.204;8.132;2023-02-11T20:46:00;100197.94;;;5.31;100.00
59106;BME280;44891;50.204;8.132;2023-02-11T20:50:02;100192.69;;;5.23;100.00
59106;BME280;44891;50.204;8.132;2023-02-11T20:54:04;100184.34;;;5.19;100.00
59106;BME280;44891;50.204;8.132;2023-02-11T20:58:06;100194.59;;;5.21;100.00
59106;BME280;44891;50.204;8.132;2023-02-11T21:02:10;100186.84;;;5.29;100.00
59106;BME280;44891;50.204;8.132;2023-02-11T21:06:12;100184.09;;;5.30;100.00
59106;BME280;44891;50.204;8.132;2023-02-11T21:10:14;100174.84;;;5.36;100.00
59106;BME280;44891;50.204;8.132;2023-02-11T21:14:17;100189.91;;;5.24;100.00
59106;BME280;44891;50.204;8.132;2023-02-11T21:18:21;100183.19;;;5.13;100.00
59106;BME280;44891;50.204;8.132;2023-02-11T21:22:23;100178.91;;;5.04;100.00
59106;BME280;44891;50.204;8.132;2023-02-11T21:26:25;100186.88;;;5.03;100.00
59106;BME280;44891;50.204;8.132;2023-02-11T21:30:27;100186.50;;;4.98;100.00
59106;BME280;44891;50.204;8.132;2023-02-11T21:34:30;100199.41;;;5.07;100.00
59106;BME280;44891;50.204;8.132;2023-02-11T21:38:32;100189.31;;;5.04;100.00
59106;BME280;44891;50.204;8.132;2023-02-11T21:42:34;100192.09;;;5.03;100.00
59106;BME280;44891;50.204;8.132;2023-02-11T21:46:36;100201.94;;;4.91;100.00